Time;durP1;ratioP1;P1;durP2;ratioP2;P2;SDS_P1;SDS_P2;PMS_P1;PMS_P2;Temp;Humidity;BMP_temperature;BMP_pressure;BME280_temperature;BME280_humidity;BME280_pressure;Samples;Min_cycle;Max_cycle;Signal;HPM_P1;HPM_P2
2021/11/18 00:01:28;;;;;;;17.95;2.22;;;;;;;9.21;83.00;100834.63;5012536;28;20045;-78
2021/11/18 00:03:55;;;;;;;11.77;1.63;;;;;;;9.20;82.69;100846.34;5010883;28;20125;-79
2021/11/18 00:06:21;;;;;;;17.27;1.80;;;;;;;9.15;81.30;100851.47;5022621;28;20006;-78
2021/11/18 00:08:46;;;;;;;14.95;1.95;;;;;;;9.02;81.64;100824.47;5015307;28;20034;-78
2021/11/18 00:11:15;;;;;;;9.02;1.20;;;;;;;9.21;80.95;100847.22;5016185;28;20510;-78
2021/11/18 00:13:47;;;;;;;14.68;1.90;;;;;;;9.25;81.93;100849.31;5017268;28;20040;-79
2021/11/18 00:16:13;;;;;;;11.85;1.75;;;;;;;9.28;81.23;100846.25;5018164;28;20022;-79
2021/11/18 00:18:41;;;;;;;14.50;1.73;;;;;;;9.31;80.78;100845.88;5017491;28;20333;-78
2021/11/18 00:21:11;;;;;;;11.10;1.70;;;;;;;9.13;81.46;100823.97;5013032;28;20037;-79
2021/11/18 00:23:40;;;;;;;15.50;2.00;;;;;;;9.22;81.85;100833.59;5016366;28;20058;-78
2021/11/18 00:26:07;;;;;;;13.57;2.05;;;;;;;9.34;81.94;100844.69;5015820;28;20037;-79
2021/11/18 00:28:33;;;;;;;13.25;1.92;;;;;;;9.31;82.46;100843.19;5015739;28;20025;-79
2021/11/18 00:30:59;;;;;;;13.85;1.80;;;;;;;9.25;82.42;100833.22;5016309;28;20057;-79
2021/11/18 00:33:25;;;;;;;12.05;1.98;;;;;;;9.35;82.83;100840.97;5015276;28;20037;-79
2021/11/18 00:35:51;;;;;;;12.90;2.10;;;;;;;9.24;83.14;100831.56;5016585;28;20026;-79
2021/11/18 00:38:17;;;;;;;11.77;2.05;;;;;;;9.25;82.70;100838.56;5013842;28;20041;-79
2021/11/18 00:40:46;;;;;;;13.88;1.90;;;;;;;9.25;82.58;100852.00;4999126;28;20041;-80
2021/11/18 00:43:15;;;;;;;10.48;1.88;;;;;;;9.22;82.33;100855.06;5014472;28;20021;-79
2021/11/18 00:45:40;;;;;;;8.90;1.75;;;;;;;9.14;83.37;100847.13;5016248;28;20141;-78
2021/11/18 00:48:07;;;;;;;11.10;2.10;;;;;;;9.15;82.49;100841.56;5014609;28;20487;-79
2021/11/18 00:50:39;;;;;;;8.43;1.58;;;;;;;9.16;82.11;100835.16;5015927;28;20029;-79
2021/11/18 00:53:04;;;;;;;11.73;1.77;;;;;;;9.08;82.73;100837.97;5014847;28;20041;-79
2021/11/18 00:55:32;;;;;;;10.00;1.45;;;;;;;9.13;83.28;100848.13;5016107;28;20025;-79
2021/11/18 00:57:57;;;;;;;9.15;1.67;;;;;;;9.13;84.10;100840.06;5014937;28;20034;-78
2021/11/18 01:00:26;;;;;;;11.07;1.33;;;;;;;9.12;82.25;100843.78;5003792;28;20041;-79
2021/11/18 01:02:52;;;;;;;19.20;2.65;;;;;;;9.17;83.25;100852.97;5016803;28;20030;-79
2021/11/18 01:05:24;;;;;;;10.32;1.48;;;;;;;8.86;83.89;100807.56;5015713;28;20060;-79
2021/11/18 01:07:50;;;;;;;8.63;1.30;;;;;;;9.21;84.01;100860.63;5015000;28;20100;-79
2021/11/18 01:10:15;;;;;;;12.73;1.92;;;;;;;9.16;82.76;100851.28;5016055;28;20077;-78
2021/11/18 01:12:41;;;;;;;15.80;1.73;;;;;;;9.06;82.84;100839.19;5014563;28;20455;-79
2021/11/18 01:15:12;;;;;;;14.93;2.28;;;;;;;9.09;83.00;100862.97;5016132;28;20455;-79
2021/11/18 01:17:37;;;;;;;11.90;1.73;;;;;;;9.03;83.95;100848.44;5012964;28;20036;-79
2021/11/18 01:20:06;;;;;;;11.10;1.75;;;;;;;9.01;84.08;100838.91;5014855;28;20034;-79
2021/11/18 01:22:32;;;;;;;13.93;1.92;;;;;;;8.77;83.71;100811.34;5014555;28;20351;-79
2021/11/18 01:25:05;;;;;;;9.68;1.48;;;;;;;8.92;83.66;100849.75;5014993;28;20458;-79
2021/11/18 01:27:30;;;;;;;10.07;1.40;;;;;;;8.98;84.13;100856.22;5012717;28;20355;-78
2021/11/18 01:29:56;;;;;;;12.00;1.45;;;;;;;8.96;83.80;100860.09;5014796;28;20038;-79
2021/11/18 01:32:21;;;;;;;11.63;1.90;;;;;;;8.88;83.19;100842.28;5016002;28;20026;-78
2021/11/18 01:34:47;;;;;;;15.55;2.20;;;;;;;8.95;82.08;100848.56;5018991;28;20033;-79
2021/11/18 01:37:12;;;;;;;11.57;1.60;;;;;;;8.92;82.98;100848.91;5014682;28;20475;-78
2021/11/18 01:39:38;;;;;;;11.68;1.70;;;;;;;8.90;82.38;100841.03;4996912;28;20040;-79
2021/11/18 01:42:03;;;;;;;12.02;2.00;;;;;;;8.52;83.18;100788.56;5018175;28;20105;-78
2021/11/18 01:44:33;;;;;;;9.05;1.60;;;;;;;8.84;83.46;100835.59;5014305;28;20348;-78
2021/11/18 01:46:59;;;;;;;7.78;1.35;;;;;;;8.89;83.86;100838.56;5015388;28;20420;-78
2021/11/18 01:49:26;;;;;;;9.18;1.73;;;;;;;8.87;83.42;100830.72;5018280;28;20058;-78
2021/11/18 01:51:57;;;;;;;15.10;1.90;;;;;;;8.85;84.65;100832.72;5014162;28;20080;-78
2021/11/18 01:54:27;;;;;;;15.40;2.80;;;;;;;8.93;85.31;100856.78;5015067;28;20030;-79
2021/11/18 01:56:53;;;;;;;12.95;2.42;;;;;;;8.90;85.20;100856.31;5013524;28;20032;-78
2021/11/18 01:59:32;;;;;;;19.55;3.40;;;;;;;8.91;85.08;100856.16;5014380;28;20026;-78
2021/11/18 02:01:58;;;;;;;9.52;1.92;;;;;;;8.88;84.79;100844.94;5013852;28;20026;-78
2021/11/18 02:04:27;;;;;;;13.77;2.10;;;;;;;8.91;84.77;100847.25;5014096;28;20403;-78
2021/11/18 02:07:08;;;;;;;12.32;2.20;;;;;;;8.74;84.93;100832.38;5011549;28;20018;-79
2021/11/18 02:09:43;;;;;;;13.30;1.70;;;;;;;8.83;84.96;100858.09;5015849;28;20032;-78
2021/11/18 02:12:34;;;;;;;;;;;;;;;8.75;85.34;100856.34;5014804;28;20022;-78
2021/11/18 02:15:00;;;;;;;8.50;1.75;;;;;;;8.66;86.41;100831.44;5012544;28;20346;-79
2021/11/18 02:17:28;;;;;;;9.23;1.83;;;;;;;8.76;86.60;100855.31;5014339;28;20030;-79
2021/11/18 02:20:03;;;;;;;19.65;2.88;;;;;;;8.70;85.85;100842.63;5014923;28;20058;-79
2021/11/18 02:22:31;;;;;;;9.77;1.55;;;;;;;8.69;87.11;100854.41;4995540;28;20053;-79
2021/11/18 02:25:01;;;;;;;12.52;2.10;;;;;;;8.69;86.76;100865.94;5017128;28;20029;-79
2021/11/18 02:27:29;;;;;;;7.70;1.38;;;;;;;8.61;87.61;100858.00;5016465;28;20414;-79
2021/11/18 02:29:57;;;;;;;8.85;1.50;;;;;;;8.69;87.67;100860.59;5013248;28;20547;-79
2021/11/18 02:32:31;;;;;;;11.38;1.58;;;;;;;8.69;87.10;100840.97;4999807;28;20026;-79
2021/11/18 02:35:00;;;;;;;9.48;1.40;;;;;;;8.64;86.84;100854.97;5014764;28;20040;-79
2021/11/18 02:37:27;;;;;;;7.07;1.70;;;;;;;8.52;86.79;100836.84;5011949;28;20022;-79
2021/11/18 02:39:53;;;;;;;9.77;1.60;;;;;;;8.64;87.15;100872.88;5014508;28;20053;-78
2021/11/18 02:42:20;;;;;;;12.13;2.20;;;;;;;8.60;86.04;100844.78;5011920;28;20046;-78
2021/11/18 02:44:46;;;;;;;12.18;1.52;;;;;;;8.66;86.31;100854.75;5029728;28;20022;-79
2021/11/18 02:47:12;;;;;;;6.30;1.08;;;;;;;8.61;86.04;100862.53;5014254;28;20520;-79
2021/11/18 02:49:44;;;;;;;10.70;1.63;;;;;;;8.64;86.96;100859.47;5015371;28;20029;-79
2021/11/18 02:52:11;;;;;;;11.88;1.55;;;;;;;8.63;86.57;100860.50;5015072;28;20027;-79
2021/11/18 02:54:39;;;;;;;12.90;1.73;;;;;;;8.62;86.96;100869.56;5014525;28;20037;-78
2021/11/18 02:57:05;;;;;;;14.73;1.90;;;;;;;8.59;87.52;100860.03;5012852;28;20033;-79
2021/11/18 02:59:31;;;;;;;9.88;1.10;;;;;;;8.58;86.38;100871.78;5014660;28;20049;-78
2021/11/18 03:01:57;;;;;;;11.82;2.38;;;;;;;8.50;86.40;100863.00;5012110;28;20026;-79
2021/11/18 03:04:22;;;;;;;12.38;1.77;;;;;;;8.43;87.45;100842.28;5013955;28;20058;-78
2021/11/18 03:06:47;;;;;;;11.80;2.17;;;;;;;8.53;86.72;100859.94;5009801;28;20037;-79
2021/11/18 03:09:13;;;;;;;12.73;1.85;;;;;;;8.45;87.66;100856.34;5013373;28;20052;-78
2021/11/18 03:11:39;;;;;;;12.65;2.20;;;;;;;8.53;87.59;100867.97;5011188;28;20052;-79
2021/11/18 03:14:05;;;;;;;9.98;1.40;;;;;;;8.45;87.95;100860.88;5014057;28;20044;-79
2021/11/18 03:16:31;;;;;;;14.05;1.95;;;;;;;8.48;87.97;100871.22;5016220;28;20022;-78
2021/11/18 03:18:56;;;;;;;14.20;2.03;;;;;;;8.40;88.45;100861.41;4994281;28;20042;-79
2021/11/18 03:21:25;;;;;;;6.05;1.27;;;;;;;8.31;87.88;100857.13;5014049;28;20029;-79
2021/11/18 03:23:52;;;;;;;10.77;1.58;;;;;;;8.47;86.88;100885.63;5020112;28;20479;-78
2021/11/18 03:26:22;;;;;;;11.57;1.83;;;;;;;8.43;86.87;100869.09;5012606;28;20440;-79
2021/11/18 03:28:48;;;;;;;16.05;1.90;;;;;;;8.59;86.88;100894.91;5011988;28;20029;-78
2021/11/18 03:31:15;;;;;;;11.27;2.38;;;;;;;8.58;86.36;100893.25;5012473;28;20029;-78
2021/11/18 03:33:48;;;;;;;8.98;2.05;;;;;;;8.49;86.78;100877.41;5011323;28;20034;-78
2021/11/18 03:36:15;;;;;;;14.82;1.95;;;;;;;8.43;86.88;100866.41;5013905;28;20014;-78
2021/11/18 03:38:41;;;;;;;8.43;1.48;;;;;;;8.40;86.54;100861.41;5011237;28;20041;-78
2021/11/18 03:41:08;;;;;;;14.10;1.50;;;;;;;8.56;85.92;100891.75;5011474;28;20041;-79
2021/11/18 03:43:37;;;;;;;12.05;1.50;;;;;;;8.59;85.52;100888.72;5013371;28;20037;-79
2021/11/18 03:46:03;;;;;;;8.88;1.38;;;;;;;8.63;85.28;100892.69;5011929;28;20075;-79
2021/11/18 03:48:32;;;;;;;11.77;1.75;;;;;;;8.66;86.20;100890.47;5029434;28;20034;-79
2021/11/18 03:50:58;;;;;;;11.25;1.50;;;;;;;8.64;87.10;100902.38;5012446;28;20341;-79
2021/11/18 03:53:24;;;;;;;9.10;1.58;;;;;;;8.60;87.00;100896.56;5012089;28;20037;-79
2021/11/18 03:55:50;;;;;;;12.07;1.70;;;;;;;8.58;86.74;100889.75;5012439;28;20036;-78
2021/11/18 03:58:16;;;;;;;9.73;1.48;;;;;;;8.55;86.29;100884.75;5012260;28;20555;-79
2021/11/18 04:00:42;;;;;;;10.98;1.83;;;;;;;8.60;86.20;100906.47;5010362;28;20052;-79
2021/11/18 04:03:10;;;;;;;11.88;2.47;;;;;;;8.57;86.09;100912.19;4996251;28;20122;-80
2021/11/18 04:05:38;;;;;;;8.73;1.23;;;;;;;8.56;84.85;100913.22;5017124;28;20440;-79
2021/11/18 04:08:04;;;;;;;7.53;1.70;;;;;;;8.60;84.78;100928.75;5015805;28;20022;-79
2021/11/18 04:10:32;;;;;;;9.32;1.63;;;;;;;8.69;84.00;100908.03;5015835;28;20033;-79
2021/11/18 04:12:59;;;;;;;4.80;1.00;;;;;;;8.67;85.17;100902.03;5013524;28;20025;-78
2021/11/18 04:15:27;;;;;;;13.25;1.50;;;;;;;8.67;85.31;100920.78;5012368;28;20069;-79
2021/11/18 04:17:53;;;;;;;13.60;1.70;;;;;;;8.60;85.47;100903.78;5007381;28;20025;-79
2021/11/18 04:20:20;;;;;;;9.85;1.52;;;;;;;8.65;85.66;100899.53;5013234;28;20021;-79
2021/11/18 04:22:48;;;;;;;9.05;1.50;;;;;;;8.58;85.47;100903.97;5013376;28;20048;-79
2021/11/18 04:25:16;;;;;;;8.85;1.67;;;;;;;8.66;85.13;100903.03;5012045;28;20029;-78
2021/11/18 04:27:43;;;;;;;9.55;1.42;;;;;;;8.69;85.22;100913.41;5012629;28;20021;-79
2021/11/18 04:30:12;;;;;;;7.22;1.08;;;;;;;8.69;84.83;100908.03;5013304;28;20030;-79
2021/11/18 04:32:38;;;;;;;10.65;1.38;;;;;;;8.60;84.10;100901.91;5011108;28;20431;-78
2021/11/18 04:35:06;;;;;;;10.82;1.73;;;;;;;8.67;84.41;100912.75;4996431;28;20037;-79
2021/11/18 04:37:31;;;;;;;10.88;1.70;;;;;;;8.68;85.05;100936.72;5009855;28;20132;-79
2021/11/18 04:39:57;;;;;;;11.73;1.98;;;;;;;8.68;86.10;100939.41;4995495;28;20113;-79
2021/11/18 04:42:24;;;;;;;10.43;2.63;;;;;;;8.66;85.76;100929.88;5011388;28;20345;-79
2021/11/18 04:44:49;;;;;;;11.93;1.60;;;;;;;8.58;84.28;100908.50;5012884;28;20045;-79
2021/11/18 04:47:15;;;;;;;11.13;1.25;;;;;;;8.70;84.84;100925.78;5012308;28;20022;-79
2021/11/18 04:49:44;;;;;;;6.57;1.38;;;;;;;8.59;84.10;100902.13;5012972;28;20053;-79
2021/11/18 04:52:11;;;;;;;11.10;1.48;;;;;;;8.64;83.43;100922.03;5029409;28;20096;-79
2021/11/18 04:54:36;;;;;;;8.95;1.23;;;;;;;8.68;83.52;100933.22;4997292;28;20041;-79
2021/11/18 04:57:03;;;;;;;9.60;1.17;;;;;;;8.67;83.52;100927.00;5003065;28;20049;-79
2021/11/18 04:59:30;;;;;;;8.82;1.38;;;;;;;8.57;82.94;100904.16;5017342;28;20101;-79
2021/11/18 05:01:56;;;;;;;11.35;1.45;;;;;;;8.62;81.54;100933.94;5015114;28;20092;-79
2021/11/18 05:04:23;;;;;;;7.32;0.68;;;;;;;8.68;81.44;100938.59;5016494;28;20049;-79
2021/11/18 05:06:48;;;;;;;8.35;1.40;;;;;;;8.74;82.40;100956.63;5015611;28;20034;-79
2021/11/18 05:09:14;;;;;;;5.80;1.13;;;;;;;8.74;81.95;100947.72;5015019;28;20026;-79
2021/11/18 05:11:41;;;;;;;7.97;1.50;;;;;;;8.75;80.73;100947.56;5014297;28;20080;-78
2021/11/18 05:14:08;;;;;;;10.15;1.98;;;;;;;8.73;80.68;100949.56;5014280;28;20418;-78
2021/11/18 05:16:34;;;;;;;8.05;1.35;;;;;;;8.76;81.09;100951.06;5015825;28;20018;-79
2021/11/18 05:19:00;;;;;;;8.32;1.08;;;;;;;8.75;80.51;100944.88;5015786;28;20437;-79
2021/11/18 05:21:29;;;;;;;6.78;1.15;;;;;;;8.78;81.04;100947.19;5013113;28;20029;-79
2021/11/18 05:23:56;;;;;;;8.02;1.40;;;;;;;8.75;80.61;100950.25;5016014;28;20025;-78
2021/11/18 05:26:22;;;;;;;16.95;1.75;;;;;;;8.74;80.35;100956.63;5010770;28;20033;-78
2021/11/18 05:28:48;;;;;;;11.88;1.92;;;;;;;8.75;80.81;100966.34;5007703;28;20026;-78
2021/11/18 05:31:18;;;;;;;7.82;1.25;;;;;;;8.77;81.76;100977.69;5012262;28;20025;-78
2021/11/18 05:33:44;;;;;;;6.75;1.42;;;;;;;8.74;81.46;100966.50;5013580;28;20570;-78
2021/11/18 05:36:09;;;;;;;10.13;1.50;;;;;;;8.74;81.43;100974.56;5014331;28;20061;-78
2021/11/18 05:38:35;;;;;;;20.25;2.20;;;;;;;8.81;82.19;100979.03;5011407;28;20068;-79
2021/11/18 05:41:01;;;;;;;12.32;2.22;;;;;;;8.81;82.79;100986.25;5011084;28;20084;-79
2021/11/18 05:43:29;;;;;;;9.98;1.60;;;;;;;8.69;82.86;100959.84;5015856;28;20034;-79
2021/11/18 05:45:55;;;;;;;9.75;1.52;;;;;;;8.74;83.22;100975.41;5014406;28;20038;-78
2021/11/18 05:48:21;;;;;;;9.52;1.48;;;;;;;8.62;83.23;100960.75;5012262;28;20025;-79
2021/11/18 05:50:50;;;;;;;9.60;1.30;;;;;;;8.79;82.47;100972.16;5012690;28;20183;-77
2021/11/18 05:53:20;;;;;;;10.55;1.23;;;;;;;8.66;82.55;100943.28;5011347;28;20036;-78
2021/11/18 05:55:46;;;;;;;11.50;1.50;;;;;;;8.70;82.81;100928.47;5007852;28;20021;-78
2021/11/18 05:58:12;;;;;;;15.00;2.33;;;;;;;8.61;82.25;100918.84;5007977;28;20344;-78
2021/11/18 06:00:38;;;;;;;11.32;1.60;;;;;;;8.66;82.50;100933.38;4991092;28;20148;-78
2021/11/18 06:03:04;;;;;;;10.25;1.52;;;;;;;8.76;81.43;100959.13;5013556;28;20546;-78
2021/11/18 06:05:31;;;;;;;7.05;1.00;;;;;;;8.77;81.63;100963.47;5008925;28;20108;-79
2021/11/18 06:07:56;;;;;;;15.80;2.10;;;;;;;8.76;80.93;100951.91;5008653;28;20022;-79
2021/11/18 06:10:24;;;;;;;11.15;1.65;;;;;;;8.79;81.17;100956.91;5008489;28;20025;-79
2021/11/18 06:12:50;;;;;;;9.80;1.80;;;;;;;8.73;81.29;100946.91;5020655;28;20051;-78
2021/11/18 06:15:16;;;;;;;10.40;1.48;;;;;;;8.80;81.58;100961.25;5020470;28;20054;-78
2021/11/18 06:17:41;;;;;;;10.80;1.50;;;;;;;8.81;81.58;100979.03;5011507;28;20033;-78
2021/11/18 06:20:09;;;;;;;5.90;0.90;;;;;;;8.81;81.91;100987.06;5013444;28;20034;-78
2021/11/18 06:22:35;;;;;;;9.00;1.55;;;;;;;8.81;82.20;100987.06;5018035;28;20064;-78
2021/11/18 06:25:00;;;;;;;6.15;0.85;;;;;;;8.81;82.14;100987.06;5014301;28;20050;-78
2021/11/18 06:27:28;;;;;;;11.15;1.48;;;;;;;8.78;80.91;100987.44;5013693;28;20030;-79
2021/11/18 06:29:54;;;;;;;6.30;1.30;;;;;;;8.82;81.02;100969.94;5013875;28;20507;-78
2021/11/18 06:32:22;;;;;;;8.45;1.48;;;;;;;8.79;80.87;100981.03;5012014;28;20029;-78
2021/11/18 06:34:47;;;;;;;9.55;1.52;;;;;;;8.84;80.84;100975.13;5017090;28;20032;-78
2021/11/18 06:37:14;;;;;;;6.32;1.23;;;;;;;8.83;81.54;100971.59;5015635;28;20022;-79
2021/11/18 06:39:41;;;;;;;10.23;2.33;;;;;;;8.87;81.72;100985.50;5014690;28;20022;-79
2021/11/18 06:42:09;;;;;;;11.27;1.85;;;;;;;8.85;81.46;100995.59;5014156;28;20021;-79
2021/11/18 06:44:35;;;;;;;6.50;1.33;;;;;;;8.69;81.09;100986.69;5019852;28;20057;-80
2021/11/18 06:47:01;;;;;;;8.43;1.10;;;;;;;8.86;80.89;101005.28;5014464;28;20026;-79
2021/11/18 06:49:26;;;;;;;7.85;1.50;;;;;;;8.93;81.18;101003.53;5013899;28;20165;-78
2021/11/18 06:51:52;;;;;;;7.82;1.83;;;;;;;8.97;81.52;101001.31;5009885;28;20069;-79
2021/11/18 06:54:18;;;;;;;13.55;1.60;;;;;;;8.60;82.35;100936.78;5009852;28;20026;-79
2021/11/18 06:56:45;;;;;;;11.30;1.80;;;;;;;9.00;82.88;101003.63;5015108;28;20152;-79
2021/11/18 06:59:12;;;;;;;12.73;1.65;;;;;;;8.98;83.29;101001.16;5008035;28;20033;-79
2021/11/18 07:01:38;;;;;;;9.38;1.23;;;;;;;8.96;83.64;100976.34;5012308;28;20411;-78
2021/11/18 07:04:08;;;;;;;14.80;1.85;;;;;;;9.03;83.36;100981.81;5014474;28;20472;-79
2021/11/18 07:06:36;;;;;;;6.30;1.20;;;;;;;9.01;83.40;100995.41;5008548;28;20053;-78
2021/11/18 07:09:07;;;;;;;8.77;1.30;;;;;;;9.04;82.13;100991.50;5006234;28;20093;-79
2021/11/18 07:11:34;;;;;;;9.18;1.38;;;;;;;8.93;82.68;100972.16;5006458;28;20030;-78
2021/11/18 07:14:00;;;;;;;10.95;1.80;;;;;;;8.93;82.33;100968.66;5008126;28;20426;-78
2021/11/18 07:16:25;;;;;;;8.95;1.70;;;;;;;9.07;82.78;100992.00;5012421;28;20360;-78
2021/11/18 07:18:52;;;;;;;9.88;1.70;;;;;;;9.06;83.28;101001.06;5005931;28;20029;-79
2021/11/18 07:21:22;;;;;;;11.32;1.60;;;;;;;9.08;84.08;101014.31;5010752;28;20029;-79
2021/11/18 07:23:51;;;;;;;10.32;1.77;;;;;;;9.01;83.85;101021.44;5025826;28;20021;-79
2021/11/18 07:26:17;;;;;;;9.80;1.50;;;;;;;9.01;83.65;101040.22;5012393;28;20026;-79
2021/11/18 07:28:43;;;;;;;10.48;1.50;;;;;;;8.85;82.69;101012.53;5009621;28;20452;-79
2021/11/18 07:31:10;;;;;;;8.32;1.23;;;;;;;9.00;82.54;101031.31;5010977;28;20074;-78
2021/11/18 07:33:36;;;;;;;9.98;1.30;;;;;;;8.69;82.61;100965.22;5010725;28;20094;-78
2021/11/18 07:36:02;;;;;;;10.55;1.58;;;;;;;9.03;82.13;100995.22;5007826;28;20117;-79
2021/11/18 07:38:31;;;;;;;14.20;1.60;;;;;;;9.04;81.77;100996.88;5006839;28;20049;-79
2021/11/18 07:40:57;;;;;;;10.85;1.60;;;;;;;9.06;81.29;100997.53;5006007;28;20034;-78
2021/11/18 07:43:27;;;;;;;12.05;1.42;;;;;;;9.08;80.57;101003.56;5006750;28;20025;-78
2021/11/18 07:45:56;;;;;;;9.70;1.48;;;;;;;8.97;80.84;100993.28;5010257;28;20022;-79
2021/11/18 07:48:21;;;;;;;13.05;1.98;;;;;;;9.11;81.14;101035.41;5010417;28;20092;-79
2021/11/18 07:50:47;;;;;;;11.65;2.03;;;;;;;9.15;80.87;101020.59;5003094;28;20029;-78
2021/11/18 07:53:14;;;;;;;6.32;1.25;;;;;;;9.17;80.54;101011.34;5010125;28;20030;-78
2021/11/18 07:55:40;;;;;;;8.55;1.15;;;;;;;9.22;80.36;101016.16;5011867;28;20034;-78
2021/11/18 07:58:06;;;;;;;9.20;1.30;;;;;;;9.25;80.33;101015.78;5012909;28;20026;-79
2021/11/18 08:00:31;;;;;;;12.48;1.52;;;;;;;9.29;80.55;101022.44;5016821;28;20043;-78
2021/11/18 08:02:57;;;;;;;8.75;1.40;;;;;;;9.34;80.33;101025.44;5014458;28;20025;-77
2021/11/18 08:05:24;;;;;;;15.02;1.50;;;;;;;9.32;80.28;101015.88;5012380;28;20113;-79
2021/11/18 08:07:49;;;;;;;14.25;2.33;;;;;;;9.36;80.01;101022.53;5012800;28;20061;-78
2021/11/18 08:10:15;;;;;;;8.73;1.17;;;;;;;9.41;79.64;101020.16;5011507;28;20062;-78
2021/11/18 08:12:41;;;;;;;8.93;1.67;;;;;;;9.44;79.40;101016.22;5007694;28;20045;-79
2021/11/18 08:15:10;;;;;;;12.05;1.33;;;;;;;9.45;79.33;101004.50;5008871;28;20084;-78
2021/11/18 08:17:36;;;;;;;10.68;1.30;;;;;;;9.48;78.50;101006.81;5006374;28;20036;-79
2021/11/18 08:20:03;;;;;;;10.52;1.63;;;;;;;9.33;79.46;101004.94;4994297;28;20109;-78
2021/11/18 08:22:29;;;;;;;11.63;1.63;;;;;;;9.53;80.23;101023.19;5012276;28;20049;-78
2021/11/18 08:24:54;;;;;;;13.60;2.47;;;;;;;9.51;80.39;101031.44;5016124;28;20025;-79
2021/11/18 08:27:20;;;;;;;13.27;1.98;;;;;;;9.52;80.59;101016.97;5015312;28;20029;-78
2021/11/18 08:29:47;;;;;;;12.63;1.70;;;;;;;9.53;81.31;101023.19;5020536;28;20443;-79
2021/11/18 08:32:13;;;;;;;11.82;1.75;;;;;;;9.46;80.73;100998.09;5020966;28;20390;-78
2021/11/18 08:34:38;;;;;;;15.10;1.92;;;;;;;9.20;80.28;100948.38;5014188;28;20447;-79
2021/11/18 08:37:05;;;;;;;8.85;1.40;;;;;;;9.62;80.79;101005.94;5009477;28;20101;-78
2021/11/18 08:39:32;;;;;;;9.95;1.45;;;;;;;9.64;80.98;101015.47;5009787;28;20061;-78
2021/11/18 08:42:01;;;;;;;14.65;1.85;;;;;;;9.69;80.97;101008.72;5010685;28;20105;-79
2021/11/18 08:44:29;;;;;;;13.43;1.90;;;;;;;9.71;80.83;101007.50;5010791;28;20647;-78
2021/11/18 08:46:55;;;;;;;16.83;1.92;;;;;;;9.74;81.34;101003.63;5009930;28;20026;-79
2021/11/18 08:49:22;;;;;;;16.00;1.83;;;;;;;9.75;81.50;101000.72;5014335;28;20061;-79
2021/11/18 08:51:49;;;;;;;16.63;1.90;;;;;;;9.71;81.99;100996.75;5010786;28;20018;-79
2021/11/18 08:54:19;;;;;;;11.93;1.90;;;;;;;9.68;82.23;100999.00;5009517;28;20049;-78
2021/11/18 08:56:47;;;;;;;11.18;1.50;;;;;;;9.64;82.52;100999.38;5024867;28;20336;-79
2021/11/18 08:59:14;;;;;;;13.95;1.80;;;;;;;9.75;82.68;101021.41;5010648;28;20021;-78
2021/11/18 09:01:48;;;;;;;11.68;2.15;;;;;;;9.79;83.26;101018.13;5011123;28;20034;-79
2021/11/18 09:04:17;;;;;;;13.77;1.90;;;;;;;9.84;83.53;101018.41;5013977;28;20049;-78
2021/11/18 09:06:43;;;;;;;12.73;1.73;;;;;;;9.88;84.42;101002.72;5009251;28;20088;-79
2021/11/18 09:09:10;;;;;;;16.02;1.92;;;;;;;9.90;84.41;101000.69;5009801;28;20029;-78
2021/11/18 09:11:37;;;;;;;16.08;2.20;;;;;;;9.82;84.57;100980.13;5010236;28;20423;-78
2021/11/18 09:14:04;;;;;;;12.57;2.00;;;;;;;9.94;84.54;100990.41;5010648;28;20384;-78
2021/11/18 09:16:31;;;;;;;13.98;1.90;;;;;;;9.89;84.62;100981.03;5011806;28;20468;-78
2021/11/18 09:18:57;;;;;;;13.40;2.10;;;;;;;9.84;84.75;100967.34;5007196;28;20033;-78
2021/11/18 09:21:25;;;;;;;16.02;1.73;;;;;;;10.03;84.97;100986.53;4993707;28;20038;-79
2021/11/18 09:24:07;;;;;;;18.35;2.55;;;;;;;10.07;84.91;100993.22;5016622;28;20049;-78
2021/11/18 09:26:37;;;;;;;14.68;2.03;;;;;;;9.97;85.01;100968.50;5022028;28;20045;-78
2021/11/18 09:29:04;;;;;;;19.65;2.00;;;;;;;10.14;85.18;100988.75;5024754;28;20048;-79
2021/11/18 09:31:31;;;;;;;16.38;2.42;;;;;;;10.11;85.22;100981.06;5011662;28;20022;-78
2021/11/18 09:33:57;;;;;;;20.45;2.53;;;;;;;10.13;85.83;100968.25;5018199;28;20092;-78
2021/11/18 09:36:25;;;;;;;18.00;2.42;;;;;;;10.14;86.17;100967.22;5016314;28;20506;-78
2021/11/18 09:38:52;;;;;;;15.65;2.80;;;;;;;10.15;86.82;100963.50;5013795;28;20095;-79
2021/11/18 09:41:27;;;;;;;17.60;2.28;;;;;;;10.22;87.54;100958.19;5017134;28;20099;-78
2021/11/18 09:43:58;;;;;;;17.98;2.35;;;;;;;10.26;87.78;100954.94;5015389;28;20028;-79
2021/11/18 09:46:51;;;;;;;22.42;2.67;;;;;;;10.34;87.38;100954.00;5017656;28;20022;-78
2021/11/18 09:49:39;;;;;;;18.17;2.20;;;;;;;10.28;87.86;100958.28;5013124;28;20085;-78
2021/11/18 09:52:32;;;;;;;20.63;2.72;;;;;;;10.25;87.80;100952.44;5018007;28;20022;-78
2021/11/18 09:55:08;;;;;;;21.35;2.83;;;;;;;10.22;88.59;100947.44;5019432;28;20061;-80
2021/11/18 09:57:42;;;;;;;14.48;2.50;;;;;;;10.19;88.95;100954.03;5014022;28;20037;-79
2021/11/18 10:00:27;;;;;;;19.98;2.72;;;;;;;10.17;89.57;100948.03;5011911;28;20033;-78
2021/11/18 10:03:01;;;;;;;19.50;3.50;;;;;;;10.16;89.69;100962.47;5009752;28;20037;-79
2021/11/18 10:05:44;;;;;;;18.23;2.55;;;;;;;10.18;90.33;100963.13;5014023;28;20080;-79
2021/11/18 10:08:18;;;;;;;23.80;3.50;;;;;;;10.15;90.58;100958.13;5007777;28;20033;-79
2021/11/18 10:10:56;;;;;;;23.80;2.97;;;;;;;10.24;90.17;100950.78;5014838;28;20042;-79
2021/11/18 10:13:30;;;;;;;21.42;2.85;;;;;;;10.20;90.19;100947.66;5011187;28;20033;-79
2021/11/18 10:16:01;;;;;;;19.85;3.28;;;;;;;10.27;90.56;100950.44;5013358;28;20034;-79
2021/11/18 10:18:37;;;;;;;18.25;2.50;;;;;;;10.21;90.93;100941.22;5012557;28;20021;-78
2021/11/18 10:21:11;;;;;;;24.90;3.33;;;;;;;10.21;91.72;100948.47;5013355;28;20349;-79
2021/11/18 10:23:37;;;;;;;;;;;;;;;10.13;92.08;100938.66;5019268;28;20033;-79
2021/11/18 10:26:14;;;;;;;28.40;3.00;;;;;;;10.08;91.34;100924.97;5013918;28;20294;-78
2021/11/18 10:29:06;;;;;;;20.45;2.70;;;;;;;10.09;91.82;100937.38;5011957;28;20030;-78
2021/11/18 10:31:54;;;;;;;22.38;3.00;;;;;;;10.18;92.36;100947.00;5014094;28;20355;-79
2021/11/18 10:34:51;;;;;;;20.67;3.08;;;;;;;10.14;92.85;100948.41;5014520;28;20365;-79
2021/11/18 10:37:39;;;;;;;20.08;3.25;;;;;;;10.10;92.63;100944.44;5014556;28;20025;-78
2021/11/18 10:40:18;;;;;;;20.30;3.20;;;;;;;10.15;93.45;100941.19;5013886;28;20037;-78
2021/11/18 10:43:03;;;;;;;22.65;3.15;;;;;;;10.11;93.58;100941.56;5013165;28;20033;-78
2021/11/18 10:45:42;;;;;;;30.20;4.20;;;;;;;10.08;93.07;100930.34;5012356;28;20451;-78
2021/11/18 10:48:20;;;;;;;29.90;3.58;;;;;;;10.12;93.81;100931.63;5012701;28;20386;-78
2021/11/18 10:50:52;;;;;;;24.52;3.33;;;;;;;10.15;93.73;100927.72;5011828;28;20037;-79
2021/11/18 10:53:43;;;;;;;27.75;3.95;;;;;;;9.93;94.49;100884.72;5014237;28;20025;-79
2021/11/18 10:56:14;;;;;;;24.05;4.07;;;;;;;10.14;94.73;100907.25;5014257;28;20022;-79
2021/11/18 10:58:45;;;;;;;32.17;4.25;;;;;;;10.14;94.24;100902.69;5012021;28;20463;-78
2021/11/18 11:01:17;;;;;;;33.35;4.85;;;;;;;10.17;94.25;100894.25;5013451;28;20363;-79
2021/11/18 11:03:44;;;;;;;29.42;4.28;;;;;;;10.13;94.76;100887.56;5027404;28;20076;-78
2021/11/18 11:06:30;;;;;;;26.27;4.15;;;;;;;10.05;94.79;100863.53;5014955;28;20112;-79
2021/11/18 11:09:27;;;;;;;34.75;4.68;;;;;;;10.15;95.07;100882.84;5014813;28;20033;-79
2021/11/18 11:12:26;;;;;;;27.20;3.90;;;;;;;10.17;95.19;100880.81;5008341;28;20375;-79
2021/11/18 11:15:17;;;;;;;27.70;4.05;;;;;;;10.14;95.50;100877.69;5025221;28;20025;-79
2021/11/18 11:18:20;;;;;;;28.73;4.22;;;;;;;10.17;94.63;100883.50;5012756;28;20414;-79
2021/11/18 11:21:11;;;;;;;25.15;4.07;;;;;;;10.18;94.58;100889.69;5013275;28;20338;-81
2021/11/18 11:24:11;;;;;;;25.77;3.90;;;;;;;10.18;95.24;100887.00;4993440;28;20033;-79
2021/11/18 11:26:36;;;;;;;25.60;4.18;;;;;;;10.16;95.46;100881.81;5009314;28;20044;-79
2021/11/18 11:29:24;;;;;;;21.88;3.17;;;;;;;10.14;94.66;100875.00;5010737;28;20030;-80
2021/11/18 11:31:52;;;;;;;34.72;4.22;;;;;;;10.12;95.23;100856.34;5008553;28;20022;-79
2021/11/18 11:34:56;;;;;;;20.45;3.75;;;;;;;10.17;95.28;100836.97;5010016;28;20041;-79
2021/11/18 11:38:02;;;;;;;27.50;4.20;;;;;;;10.08;94.74;100812.06;4964526;28;20045;-79